Onde está Évora, Evora en Portugal?

Évora está situado na região Evora em Portugal!

Buscar o nome de uma cidade:

Evore, Evoredulu, Évora, Évora, Evormakok

Aqui você vai encontrar a localização de Évora em um mapa.
Para ver como ele atualmente parece, abaixo estão algumas fotos da região, com webcams online.
Você também pode encontrar a distância para as principais cidades da região e de cidades do resto do Portugal.

2 lugares nomeadas Évora na Portugal.

Todos os lugares do mundo chamado .

new

Onde está Évora no mapa?


Webcams perto Évora

Comporta: Distrito de - Praia do Carvalhal°.


Comporta: Distrito de - Praia do Carvalhal° - Dia
Actual
Comporta: Distrito de - Praia do Carvalhal° - Actual

Vasco Carão > South: Garrocheira, Benavente - Airport.


Vasco Carão > South: Garrocheira, Benavente - Airport - Dia
Actual
Vasco Carão > South: Garrocheira, Benavente - Airport - Actual

Benavente > North-East: AIrport, METAR: BENAV 180005Z 36004KT 17/14 Q1015.


Benavente > North-East: AIrport, METAR: BENAV 180005Z 36004KT 17/14 Q1015 - Dia
Actual
Benavente > North-East: AIrport, METAR: BENAV 180005Z 36004KT 17/14 Q1015 - Actual

Webcams provided by webcams.travel

Distâncias

Onde está Évora em relação a outros lugares?

Top 10 cidades em Evora e distância de Évora.

Cidade#Populaçãokmmilhas
Évora14585100
Montemor-o-Novo2128542918
Vendas Novas3112485031
Estremoz493494226
Reguengos de Monsaraz572173522
Redondo658453220
Vila Viçosa754844830
Borba845864729
Adaval9-2616
Agua d' Alte10-3220

Top 10 cidades em Portugal e distância de Évora.

Cidade # Populaçãokmmilhas
Lisbon151779810867
Porto2249630293182
Amadora317885611974
Braga4121393335208
Setúbal51171098754
Coimbra6106580188117
Queluz710339811974
Funchal8980411048651
Vila Nova de Gaia970810291181
Loures106623011471